createdAt,value
2023-05-01T00:01:20.014Z,98298.05
2023-05-01T00:03:49.234Z,98303.73
2023-05-01T00:06:18.376Z,98300.58
2023-05-01T00:08:47.308Z,98303.30
2023-05-01T00:11:17.222Z,98304.41
2023-05-01T00:13:45.877Z,98303.20
2023-05-01T00:16:15.404Z,98305.65
2023-05-01T00:18:44.700Z,98302.52
2023-05-01T00:21:13.585Z,98301.01
2023-05-01T00:23:42.290Z,98297.73
2023-05-01T00:26:13.245Z,98300.40
2023-05-01T00:28:42.602Z,98293.58
2023-05-01T00:31:11.726Z,98290.20
2023-05-01T00:33:41.106Z,98290.39
2023-05-01T00:36:10.502Z,98287.77
2023-05-01T00:38:39.076Z,98284.59
2023-05-01T00:41:08.183Z,98279.46
2023-05-01T00:43:37.572Z,98275.83
2023-05-01T00:46:06.810Z,98274.75
2023-05-01T00:48:36.537Z,98271.39
2023-05-01T00:51:07.805Z,98268.50
2023-05-01T00:53:37.131Z,98266.50
2023-05-01T00:56:06.875Z,98260.39
2023-05-01T00:58:35.990Z,98260.33
2023-05-01T01:01:09.995Z,98257.06
2023-05-01T01:03:39.339Z,98262.91
2023-05-01T01:06:44.277Z,98258.96
2023-05-01T01:09:26.670Z,98257.19
2023-05-01T01:12:21.693Z,98256.11
2023-05-01T01:15:09.712Z,98254.88
2023-05-01T01:18:02.972Z,98255.40
2023-05-01T01:20:58.550Z,98256.11
2023-05-01T01:23:42.650Z,98260.66
2023-05-01T01:26:55.462Z,98262.02
2023-05-01T01:29:57.331Z,98259.63
2023-05-01T01:32:45.064Z,98261.95
2023-05-01T01:35:20.376Z,98261.73
2023-05-01T01:38:21.118Z,98261.99
2023-05-01T01:41:12.879Z,98262.21
2023-05-01T01:43:46.358Z,98262.09
2023-05-01T01:46:18.239Z,98258.20
2023-05-01T01:48:51.208Z,98256.70
2023-05-01T01:51:22.777Z,98259.96
2023-05-01T01:53:57.614Z,98258.51
2023-05-01T01:56:28.411Z,98260.36
2023-05-01T01:58:59.260Z,98257.14
2023-05-01T02:01:30.970Z,98251.85
2023-05-01T02:04:01.698Z,98249.06
2023-05-01T02:06:35.017Z,98245.77
2023-05-01T02:09:07.098Z,98242.61
2023-05-01T02:11:38.161Z,98239.00
2023-05-01T02:14:09.411Z,98239.94
2023-05-01T02:16:38.940Z,98238.54
2023-05-01T02:19:08.607Z,98236.94
2023-05-01T02:21:39.714Z,98239.63
2023-05-01T02:24:11.161Z,98241.83
2023-05-01T02:26:44.101Z,98238.66
2023-05-01T02:29:13.061Z,98235.96
2023-05-01T02:31:42.396Z,98229.45
2023-05-01T02:34:11.872Z,98228.09
2023-05-01T02:36:41.135Z,98224.55
2023-05-01T02:39:10.593Z,98222.41
2023-05-01T02:41:41.256Z,98222.29
2023-05-01T02:44:11.870Z,98219.13
2023-05-01T02:46:46.134Z,98215.07
2023-05-01T02:49:17.214Z,98219.34
2023-05-01T02:51:47.622Z,98216.95
2023-05-01T02:54:18.008Z,98215.80
2023-05-01T02:56:46.871Z,98213.34
2023-05-01T02:59:15.874Z,98212.64
2023-05-01T03:01:44.718Z,98208.77
2023-05-01T03:04:14.222Z,98206.20
2023-05-01T03:06:45.289Z,98207.66
2023-05-01T03:09:15.533Z,98207.50
2023-05-01T03:11:44.722Z,98209.15
2023-05-01T03:14:14.012Z,98210.33
2023-05-01T03:16:44.301Z,98210.61
2023-05-01T03:19:13.836Z,98207.59
2023-05-01T03:21:43.176Z,98207.70
2023-05-01T03:24:12.313Z,98203.98
2023-05-01T03:26:41.325Z,98203.34
2023-05-01T03:29:14.284Z,98204.44
2023-05-01T03:31:43.999Z,98200.18
2023-05-01T03:34:13.614Z,98202.19
2023-05-01T03:36:43.662Z,98203.80
2023-05-01T03:39:12.917Z,98204.14
2023-05-01T03:41:42.332Z,98200.85
2023-05-01T03:44:11.644Z,98198.63
2023-05-01T03:46:41.800Z,98196.55
2023-05-01T03:49:12.087Z,98203.15
2023-05-01T03:51:41.570Z,98197.42
2023-05-01T03:54:10.545Z,98196.33
2023-05-01T03:56:39.550Z,98194.10
2023-05-01T03:59:08.669Z,98190.35
2023-05-01T04:01:37.531Z,98192.86
2023-05-01T04:04:06.422Z,98193.42
2023-05-01T04:06:35.851Z,98200.23
2023-05-01T04:09:04.484Z,98203.02
2023-05-01T04:11:33.778Z,98204.57
2023-05-01T04:14:03.009Z,98204.89
2023-05-01T04:16:32.754Z,98204.33
2023-05-01T04:19:01.714Z,98205.63
2023-05-01T04:21:31.194Z,98205.27
2023-05-01T04:23:59.950Z,98207.02
2023-05-01T04:26:29.965Z,98204.86
2023-05-01T04:28:59.183Z,98211.92
2023-05-01T04:31:28.399Z,98203.06
2023-05-01T04:33:57.493Z,98205.75
2023-05-01T04:36:26.655Z,98204.80
2023-05-01T04:38:55.967Z,98205.04
2023-05-01T04:41:25.307Z,98207.84
2023-05-01T04:43:54.567Z,98211.00
2023-05-01T04:46:23.338Z,98212.45
2023-05-01T04:48:52.281Z,98216.58
2023-05-01T04:51:22.224Z,98217.20
2023-05-01T04:53:51.276Z,98218.02
2023-05-01T04:56:20.775Z,98215.77
2023-05-01T04:58:50.598Z,98214.04
2023-05-01T05:01:19.728Z,98216.66
2023-05-01T05:03:50.220Z,98213.89
2023-05-01T05:06:19.526Z,98213.09
2023-05-01T05:08:48.188Z,98207.45
2023-05-01T05:11:17.103Z,98210.41
2023-05-01T05:13:47.315Z,98211.95
2023-05-01T05:16:17.410Z,98209.29
2023-05-01T05:18:46.174Z,98212.40
2023-05-01T05:21:15.400Z,98216.40
2023-05-01T05:23:44.743Z,98219.20
2023-05-01T05:26:14.020Z,98223.06
2023-05-01T05:28:43.421Z,98221.80
2023-05-01T05:31:12.701Z,98224.27
2023-05-01T05:33:41.419Z,98224.77
2023-05-01T05:36:10.977Z,98223.95
2023-05-01T05:38:40.998Z,98225.04
2023-05-01T05:41:09.779Z,98225.23
2023-05-01T05:43:38.762Z,98220.21
2023-05-01T05:46:08.585Z,98221.11
2023-05-01T05:48:38.176Z,98221.15
2023-05-01T05:51:07.543Z,98224.19
2023-05-01T05:53:36.794Z,98219.17
2023-05-01T05:56:06.610Z,98224.43
2023-05-01T05:58:35.851Z,98227.80
2023-05-01T06:01:07.474Z,98227.87
2023-05-01T06:03:37.763Z,98233.41
2023-05-01T06:06:07.314Z,98236.11
2023-05-01T06:08:37.902Z,98232.45
2023-05-01T06:11:09.146Z,98237.19
2023-05-01T06:13:38.810Z,98233.19
2023-05-01T06:16:09.015Z,98238.90
2023-05-01T06:18:38.130Z,98239.77
2023-05-01T06:21:07.989Z,98237.34
2023-05-01T06:23:37.446Z,98238.03
2023-05-01T06:26:08.931Z,98241.31
2023-05-01T06:28:39.333Z,98246.01
2023-05-01T06:31:09.892Z,98242.33
2023-05-01T06:33:41.841Z,98241.32
2023-05-01T06:36:13.798Z,98243.23
2023-05-01T06:38:50.030Z,98246.27
2023-05-01T06:41:20.683Z,98248.03
2023-05-01T06:43:50.601Z,98250.92
2023-05-01T06:46:20.072Z,98248.89
2023-05-01T06:48:50.823Z,98245.44
2023-05-01T06:51:20.670Z,98242.98
2023-05-01T06:53:50.432Z,98243.88
2023-05-01T06:56:23.530Z,98245.48
2023-05-01T06:58:55.444Z,98245.16
2023-05-01T07:01:28.121Z,98248.04
2023-05-01T07:03:58.312Z,98245.26
2023-05-01T07:06:29.247Z,98247.81
2023-05-01T07:09:01.120Z,98245.42
2023-05-01T07:11:31.725Z,98249.08
2023-05-01T07:14:02.061Z,98248.38
2023-05-01T07:16:31.640Z,98245.83
2023-05-01T07:19:00.679Z,98248.98
2023-05-01T07:21:30.799Z,98248.36
2023-05-01T07:24:00.755Z,98247.23
2023-05-01T07:26:31.022Z,98245.54
2023-05-01T07:29:01.739Z,98244.80
2023-05-01T07:31:31.690Z,98241.40
2023-05-01T07:34:01.705Z,98236.87
2023-05-01T07:36:34.872Z,98240.08
2023-05-01T07:39:07.159Z,98239.03
2023-05-01T07:41:37.507Z,98240.51
2023-05-01T07:44:07.605Z,98238.45
2023-05-01T07:46:39.351Z,98240.15
2023-05-01T07:49:11.357Z,98237.77
2023-05-01T07:51:43.461Z,98235.11
2023-05-01T07:54:15.669Z,98237.04
2023-05-01T07:56:45.152Z,98236.15
2023-05-01T07:59:15.921Z,98238.25
2023-05-01T08:01:45.514Z,98235.27
2023-05-01T08:04:15.300Z,98235.80
2023-05-01T08:06:44.747Z,98242.20
2023-05-01T08:09:14.404Z,98238.01
2023-05-01T08:11:43.695Z,98240.88
2023-05-01T08:14:13.509Z,98238.27
2023-05-01T08:16:42.936Z,98240.26
2023-05-01T08:19:12.442Z,98236.96
2023-05-01T08:21:41.713Z,98232.31
2023-05-01T08:24:11.644Z,98235.73
2023-05-01T08:26:40.669Z,98234.70
2023-05-01T08:29:11.026Z,98236.31
2023-05-01T08:31:40.040Z,98228.80
2023-05-01T08:34:09.719Z,98227.59
2023-05-01T08:36:39.228Z,98224.94
2023-05-01T08:39:08.383Z,98228.45
2023-05-01T08:41:39.048Z,98230.34
2023-05-01T08:44:11.827Z,98228.39
2023-05-01T08:47:03.358Z,98228.83
2023-05-01T08:49:35.263Z,98228.00
2023-05-01T08:52:07.125Z,98226.65
2023-05-01T08:54:39.641Z,98226.66
2023-05-01T08:57:11.204Z,98225.27
2023-05-01T08:59:41.809Z,98227.25
2023-05-01T09:02:12.235Z,98227.81
2023-05-01T09:04:42.738Z,98224.21
2023-05-01T09:07:13.514Z,98223.45
2023-05-01T09:09:44.052Z,98226.06
2023-05-01T09:12:21.858Z,98223.11
2023-05-01T09:14:55.714Z,98222.80
2023-05-01T09:17:25.544Z,98218.48
2023-05-01T09:19:54.682Z,98221.14
2023-05-01T09:22:24.064Z,98216.86
2023-05-01T09:24:53.606Z,98216.30
2023-05-01T09:27:23.343Z,98219.27
2023-05-01T09:29:52.746Z,98219.37
2023-05-01T09:32:26.344Z,98222.23
2023-05-01T09:35:09.878Z,98214.71
2023-05-01T09:37:39.317Z,98209.88
2023-05-01T09:40:13.850Z,98209.44
2023-05-01T09:42:52.104Z,98215.49
2023-05-01T09:45:21.411Z,98215.83
2023-05-01T09:47:50.906Z,98216.98
2023-05-01T09:50:32.099Z,98211.96
2023-05-01T09:53:07.250Z,98215.77
2023-05-01T09:55:37.096Z,98218.60
2023-05-01T09:58:06.920Z,98216.33
2023-05-01T10:00:50.867Z,98215.04
2023-05-01T10:03:21.715Z,98214.02
2023-05-01T10:05:51.299Z,98209.32
2023-05-01T10:08:21.159Z,98208.97
2023-05-01T10:11:08.817Z,98205.64
2023-05-01T10:13:38.259Z,98206.31
2023-05-01T10:16:09.251Z,98203.41
2023-05-01T10:18:38.828Z,98203.99
2023-05-01T10:21:10.832Z,98198.41
2023-05-01T10:23:40.839Z,98203.38
2023-05-01T10:26:14.409Z,98199.20
2023-05-01T10:28:47.944Z,98199.23
2023-05-01T10:31:17.953Z,98195.41
2023-05-01T10:33:48.056Z,98195.31
2023-05-01T10:36:23.217Z,98192.63
2023-05-01T10:38:53.541Z,98191.26
2023-05-01T10:41:58.409Z,98190.70
2023-05-01T10:44:28.037Z,98190.00
2023-05-01T10:46:58.051Z,98186.56
2023-05-01T10:50:06.913Z,98187.69
2023-05-01T10:53:27.174Z,98186.76
2023-05-01T10:55:57.689Z,98183.05
2023-05-01T10:58:39.978Z,98177.19
2023-05-01T11:01:41.221Z,98178.06
2023-05-01T11:04:22.897Z,98172.61
2023-05-01T11:07:11.526Z,98171.44
2023-05-01T11:09:43.535Z,98167.66
2023-05-01T11:12:14.706Z,98166.08
2023-05-01T11:15:04.101Z,98158.16
2023-05-01T11:17:42.461Z,98162.45
2023-05-01T11:20:25.196Z,98162.52
2023-05-01T11:22:57.040Z,98155.92
2023-05-01T11:25:28.447Z,98154.33
2023-05-01T11:28:04.361Z,98149.91
2023-05-01T11:30:41.493Z,98149.42
2023-05-01T11:33:11.249Z,98150.09
2023-05-01T11:35:40.685Z,98146.41
2023-05-01T11:38:21.791Z,98149.11
2023-05-01T11:40:56.837Z,98149.30
2023-05-01T11:43:26.828Z,98150.30
2023-05-01T11:46:02.519Z,98147.67
2023-05-01T11:48:33.042Z,98148.55
2023-05-01T11:51:12.178Z,98148.22
2023-05-01T11:53:42.101Z,98150.94
2023-05-01T11:56:27.068Z,98149.86
2023-05-01T11:58:58.754Z,98146.97
2023-05-01T12:01:39.797Z,98143.11
2023-05-01T12:04:09.699Z,98144.74
2023-05-01T12:06:46.594Z,98140.79
2023-05-01T12:09:27.416Z,98139.34
2023-05-01T12:12:00.189Z,98138.37
2023-05-01T12:14:29.804Z,98142.02
2023-05-01T12:16:59.311Z,98146.67
2023-05-01T12:19:28.858Z,98146.56
2023-05-01T12:22:10.276Z,98144.05
2023-05-01T12:24:49.081Z,98146.57
2023-05-01T12:27:18.525Z,98147.02
2023-05-01T12:29:48.595Z,98147.74
2023-05-01T12:32:18.552Z,98147.66
2023-05-01T12:34:48.925Z,98144.45
2023-05-01T12:37:18.366Z,98139.44
2023-05-01T12:39:48.002Z,98140.41
2023-05-01T12:42:18.688Z,98135.10
2023-05-01T12:44:47.849Z,98136.01
2023-05-01T12:47:17.237Z,98133.87
2023-05-01T12:49:46.918Z,98133.30
2023-05-01T12:52:17.201Z,98131.06
2023-05-01T12:54:46.292Z,98131.45
2023-05-01T12:57:17.636Z,98126.42
2023-05-01T12:59:50.205Z,98123.19
2023-05-01T13:02:20.388Z,98122.69
2023-05-01T13:04:51.204Z,98121.55
2023-05-01T13:07:20.897Z,98122.08
2023-05-01T13:09:54.182Z,98117.36
2023-05-01T13:12:25.575Z,98117.27
2023-05-01T13:14:56.975Z,98115.32
2023-05-01T13:17:30.024Z,98112.84
2023-05-01T13:20:06.843Z,98109.43
2023-05-01T13:22:39.235Z,98103.11
2023-05-01T13:25:17.966Z,98103.73
2023-05-01T13:27:55.651Z,98099.48
2023-05-01T13:30:35.542Z,98101.16
2023-05-01T13:33:07.435Z,98094.79
2023-05-01T13:35:38.979Z,98096.10
2023-05-01T13:38:13.440Z,98091.50
2023-05-01T13:40:43.149Z,98086.31
2023-05-01T13:43:18.682Z,98082.98
2023-05-01T13:45:48.664Z,98081.16
2023-05-01T13:48:19.750Z,98076.04
2023-05-01T13:50:49.289Z,98073.77
2023-05-01T13:53:19.688Z,98074.05
2023-05-01T13:55:50.273Z,98071.23
2023-05-01T13:58:20.165Z,98069.87
2023-05-01T14:00:51.983Z,98067.41
2023-05-01T14:03:24.053Z,98067.40
2023-05-01T14:05:57.562Z,98065.64
2023-05-01T14:08:32.065Z,98060.09
2023-05-01T14:11:13.456Z,98058.30
2023-05-01T14:13:47.585Z,98060.52
2023-05-01T14:16:31.042Z,98059.42
2023-05-01T14:19:01.279Z,98059.88
2023-05-01T14:21:34.192Z,98057.39
2023-05-01T14:24:05.691Z,98055.36
2023-05-01T14:26:42.051Z,98054.32
2023-05-01T14:29:42.580Z,98052.17
2023-05-01T14:32:15.174Z,98055.63
2023-05-01T14:34:47.995Z,98051.02
2023-05-01T14:37:18.915Z,98052.22
2023-05-01T14:39:48.852Z,98053.11
2023-05-01T14:42:20.507Z,98053.09
2023-05-01T14:44:50.013Z,98049.63
2023-05-01T14:47:22.807Z,98045.64
2023-05-01T14:49:56.076Z,98044.67
2023-05-01T14:52:28.025Z,98046.06
2023-05-01T14:54:57.487Z,98040.98
2023-05-01T14:57:29.484Z,98042.65
2023-05-01T14:59:59.466Z,98039.59
2023-05-01T15:02:30.814Z,98035.44
2023-05-01T15:05:02.772Z,98037.43
2023-05-01T15:07:35.568Z,98036.50
2023-05-01T15:10:06.982Z,98029.33
2023-05-01T15:12:39.246Z,98029.96
2023-05-01T15:15:11.430Z,98030.04
2023-05-01T15:17:41.822Z,98030.11
2023-05-01T15:20:14.163Z,98028.86
2023-05-01T15:22:44.152Z,98025.63
2023-05-01T15:25:13.509Z,98022.92
2023-05-01T15:27:45.770Z,98025.25
2023-05-01T15:30:17.183Z,98025.58
2023-05-01T15:32:48.342Z,98028.25
2023-05-01T15:35:17.984Z,98028.73
2023-05-01T15:37:48.431Z,98031.33
2023-05-01T15:40:18.051Z,98028.52
2023-05-01T15:42:49.001Z,98028.58
2023-05-01T15:45:19.570Z,98031.84
2023-05-01T15:47:49.517Z,98032.71
2023-05-01T15:50:20.322Z,98034.80
2023-05-01T15:52:52.596Z,98036.36
2023-05-01T15:55:22.538Z,98033.30
2023-05-01T15:57:51.570Z,98032.55
2023-05-01T16:00:23.100Z,98035.31
2023-05-01T16:02:53.518Z,98029.56
2023-05-01T16:05:22.943Z,98032.77
2023-05-01T16:07:56.956Z,98029.35
2023-05-01T16:10:27.231Z,98029.73
2023-05-01T16:12:56.568Z,98029.00
2023-05-01T16:15:26.026Z,98027.14
2023-05-01T16:17:55.730Z,98027.97
2023-05-01T16:20:25.083Z,98026.09
2023-05-01T16:22:54.346Z,98026.31
2023-05-01T16:25:23.845Z,98022.45
2023-05-01T16:27:53.351Z,98018.78
2023-05-01T16:30:25.637Z,98018.54
2023-05-01T16:32:55.193Z,98019.55
2023-05-01T16:35:28.692Z,98022.74
2023-05-01T16:38:01.021Z,98020.52
2023-05-01T16:40:32.090Z,98017.40
2023-05-01T16:43:03.939Z,98021.20
2023-05-01T16:45:34.484Z,98021.64
2023-05-01T16:48:04.306Z,98022.23
2023-05-01T16:50:34.800Z,98024.24
2023-05-01T16:53:04.889Z,98029.06
2023-05-01T16:55:35.191Z,98035.45
2023-05-01T16:58:04.902Z,98033.80
2023-05-01T17:00:34.043Z,98031.13
2023-05-01T17:03:03.861Z,98031.41
2023-05-01T17:05:34.275Z,98032.67
2023-05-01T17:08:04.013Z,98029.89
2023-05-01T17:10:35.109Z,98033.96
2023-05-01T17:13:08.247Z,98033.91
2023-05-01T17:15:38.308Z,98034.41
2023-05-01T17:18:10.524Z,98030.20
2023-05-01T17:20:41.487Z,98029.63
2023-05-01T17:23:13.775Z,98032.95
2023-05-01T17:25:45.588Z,98036.77
2023-05-01T17:28:15.774Z,98041.58
2023-05-01T17:30:48.676Z,98041.90
2023-05-01T17:33:19.660Z,98039.18
2023-05-01T17:35:58.728Z,98039.77
2023-05-01T17:38:31.149Z,98038.27
2023-05-01T17:41:03.914Z,98038.12
2023-05-01T17:43:34.125Z,98038.27
2023-05-01T17:46:05.594Z,98036.84
2023-05-01T17:48:35.348Z,98033.38
2023-05-01T17:51:05.945Z,98033.52
2023-05-01T17:53:39.163Z,98035.05
2023-05-01T17:56:09.810Z,98033.20
2023-05-01T17:58:42.340Z,98034.20
2023-05-01T18:01:13.979Z,98036.27
2023-05-01T18:03:44.546Z,98038.04
2023-05-01T18:06:15.212Z,98043.09
2023-05-01T18:08:50.184Z,98042.25
2023-05-01T18:11:26.200Z,98041.14
2023-05-01T18:14:01.783Z,98041.39
2023-05-01T18:16:33.710Z,98043.19
2023-05-01T18:19:05.813Z,98044.98
2023-05-01T18:21:38.267Z,98043.73
2023-05-01T18:24:11.474Z,98036.99
2023-05-01T18:26:41.250Z,98038.27
2023-05-01T18:29:10.553Z,98042.24
2023-05-01T18:31:40.474Z,98045.21
2023-05-01T18:34:12.791Z,98045.83
2023-05-01T18:36:44.589Z,98044.79
2023-05-01T18:39:15.773Z,98046.71
2023-05-01T18:41:45.769Z,98049.66
2023-05-01T18:44:17.657Z,98052.35
2023-05-01T18:46:47.634Z,98056.19
2023-05-01T18:49:25.258Z,98053.88
2023-05-01T18:51:55.370Z,98059.15
2023-05-01T18:54:26.022Z,98058.98
2023-05-01T18:56:56.386Z,98066.30
2023-05-01T18:59:31.422Z,98065.91
2023-05-01T19:02:03.446Z,98069.10
2023-05-01T19:04:55.992Z,98069.88
2023-05-01T19:07:32.104Z,98070.88
2023-05-01T19:10:05.462Z,98073.72
2023-05-01T19:12:38.361Z,98074.93
2023-05-01T19:15:11.209Z,98072.67
2023-05-01T19:17:41.449Z,98073.95
2023-05-01T19:20:12.528Z,98073.63
2023-05-01T19:22:44.093Z,98075.95
2023-05-01T19:25:14.781Z,98075.17
2023-05-01T19:27:46.438Z,98079.32
2023-05-01T19:30:16.900Z,98083.14
2023-05-01T19:32:47.253Z,98082.09
2023-05-01T19:35:16.823Z,98083.92
2023-05-01T19:37:47.287Z,98083.22
2023-05-01T19:40:19.618Z,98084.60
2023-05-01T19:42:49.733Z,98086.02
2023-05-01T19:45:19.267Z,98087.92
2023-05-01T19:47:49.299Z,98084.34
2023-05-01T19:50:22.333Z,98084.90
2023-05-01T19:52:54.876Z,98084.30
2023-05-01T19:55:27.441Z,98089.23
2023-05-01T19:57:57.859Z,98089.16
2023-05-01T20:00:29.477Z,98094.72
2023-05-01T20:03:01.588Z,98091.36
2023-05-01T20:05:33.733Z,98089.45
2023-05-01T20:08:05.613Z,98088.88
2023-05-01T20:10:35.556Z,98088.77
2023-05-01T20:13:11.643Z,98087.78
2023-05-01T20:15:44.398Z,98084.35
2023-05-01T20:18:18.244Z,98082.83
2023-05-01T20:20:50.842Z,98087.31
2023-05-01T20:23:25.244Z,98079.34
2023-05-01T20:25:56.698Z,98078.16
2023-05-01T20:28:28.649Z,98083.98
2023-05-01T20:30:59.411Z,98083.27
2023-05-01T20:33:30.344Z,98081.61
2023-05-01T20:36:00.227Z,98083.39
2023-05-01T20:38:30.670Z,98085.06
2023-05-01T20:40:59.998Z,98088.39
2023-05-01T20:43:30.451Z,98089.19
2023-05-01T20:46:01.255Z,98090.23
2023-05-01T20:48:32.735Z,98092.95
2023-05-01T20:51:03.505Z,98093.84
2023-05-01T20:53:33.457Z,98092.33
2023-05-01T20:56:03.680Z,98089.14
2023-05-01T20:58:34.941Z,98086.77
2023-05-01T21:01:05.495Z,98083.34
2023-05-01T21:03:34.758Z,98082.16
2023-05-01T21:06:04.991Z,98079.38
2023-05-01T21:08:36.799Z,98076.02
2023-05-01T21:11:07.076Z,98080.70
2023-05-01T21:13:37.111Z,98072.84
2023-05-01T21:16:10.509Z,98077.22
2023-05-01T21:18:41.657Z,98075.64
2023-05-01T21:21:14.349Z,98075.24
2023-05-01T21:23:50.720Z,98078.35
2023-05-01T21:26:22.255Z,98076.77
2023-05-01T21:28:52.499Z,98080.59
2023-05-01T21:31:22.768Z,98079.08
2023-05-01T21:33:53.768Z,98079.38
2023-05-01T21:36:22.992Z,98077.79
2023-05-01T21:38:51.974Z,98075.56
2023-05-01T21:41:22.675Z,98078.98
2023-05-01T21:43:54.449Z,98079.07
2023-05-01T21:46:24.725Z,98076.28
2023-05-01T21:48:55.241Z,98073.83
2023-05-01T21:51:34.116Z,98071.92
2023-05-01T21:54:07.030Z,98069.77
2023-05-01T21:56:36.358Z,98067.46
2023-05-01T21:59:07.235Z,98063.40
2023-05-01T22:01:42.545Z,98058.95
2023-05-01T22:04:20.428Z,98058.16
2023-05-01T22:06:51.996Z,98055.38
2023-05-01T22:09:21.026Z,98053.06
2023-05-01T22:11:51.015Z,98051.55
2023-05-01T22:14:21.107Z,98047.89
2023-05-01T22:16:51.025Z,98046.37
2023-05-01T22:19:21.813Z,98048.92
2023-05-01T22:21:51.167Z,98048.36
2023-05-01T22:24:20.645Z,98048.45
2023-05-01T22:26:50.850Z,98052.11
2023-05-01T22:29:21.278Z,98052.11
2023-05-01T22:31:51.293Z,98044.30
2023-05-01T22:34:21.916Z,98048.05
2023-05-01T22:36:51.441Z,98047.96
2023-05-01T22:39:22.683Z,98044.15
2023-05-01T22:41:52.121Z,98042.33
2023-05-01T22:44:22.643Z,98041.67
2023-05-01T22:46:52.359Z,98040.02
2023-05-01T22:49:21.500Z,98036.22
2023-05-01T22:51:50.793Z,98035.48
2023-05-01T22:54:20.185Z,98033.75
2023-05-01T22:56:51.259Z,98022.69
2023-05-01T22:59:23.184Z,98024.67
2023-05-01T23:01:55.481Z,98022.13
2023-05-01T23:04:24.895Z,98020.94
2023-05-01T23:06:54.264Z,98017.68
2023-05-01T23:09:23.869Z,98018.80
2023-05-01T23:11:54.336Z,98011.80
2023-05-01T23:14:26.412Z,98007.90
2023-05-01T23:16:55.816Z,98000.90
2023-05-01T23:19:26.658Z,98003.74
2023-05-01T23:22:11.234Z,97998.25
2023-05-01T23:24:48.892Z,97993.09
2023-05-01T23:27:20.127Z,97988.48
2023-05-01T23:29:56.938Z,97984.41
2023-05-01T23:32:28.367Z,97979.60
2023-05-01T23:35:14.395Z,97981.92
2023-05-01T23:37:44.363Z,97973.91
2023-05-01T23:40:13.896Z,97972.95
2023-05-01T23:42:42.882Z,97969.53
2023-05-01T23:45:12.175Z,97967.23
2023-05-01T23:47:41.038Z,97964.92
2023-05-01T23:50:11.207Z,97961.58
2023-05-01T23:52:40.281Z,97956.33
2023-05-01T23:55:10.150Z,97953.95
2023-05-01T23:57:39.148Z,97954.83
